INFORMACIÓN METAR y TAF
METAR FOR YBNA
ADDS - METARS form results

(2343 UTC 25 April 2019)
Data provider http://aviationweather.gov/metar/data/
 
METAR text: YBNA 252300Z AUTO 30004KT 9999 // NCD 23/20 Q1018
Conditions at: YBNA (BALLINA BYRON G., AU) observed 2300 UTC 25 April 2019
Temperature: 23.0°C (73°F)
Dewpoint: 20.0°C (68°F) [RH = 83%]
Pressure (altimeter): 30.06 inches Hg (1018.0 mb)
Winds: from the WNW (300 degrees) at 5 MPH (4 knots; 2.1 m/s)
Visibility: 6 or more miles (10+ km)
Ceiling: at least 12,000 feet AGL
Clouds: sky clear below 12,000 feet AGL
Weather: no significant weather observed at this time

 MAPA DE AEROPUERTO

 INFORMACIÓN DE PISTA
Pista 06 Longitud 6234 ft Ancho 98 ft
Elevación 7 ft Umbral desplazado 0 ft Rumbo de pista 74
Pista 24 Longitud 6234 ft Ancho 98 ft
Elevación 7 ft Umbral desplazado 0 ft Rumbo de pista 254

 FRECUANCIAS DEL AEROPUERTO
Tipo CTAF Nombre CTAF Frecuencia 124.2 MHZ
Tipo FSS Nombre BRISBANE C Frecuencia 120.3 MHZ

 RADIO AYUDAS DEL AEROPUERTO
Tipo NDB Nombre Ballina Frecuencia 206 KHZ



Powered by Virtual Airlines Manager [v2.6.2]